sensor_id;sensor_type;location;lat;lon;timestamp;temperature;humidity
11559;DHT22;5835;42.930;25.178;2023-06-22T00:00:54;19.00;1.00
11559;DHT22;5835;42.930;25.178;2023-06-22T00:03:23;18.90;1.00
11559;DHT22;5835;42.930;25.178;2023-06-22T00:05:52;18.90;1.00
11559;DHT22;5835;42.930;25.178;2023-06-22T00:08:21;18.70;1.00
11559;DHT22;5835;42.930;25.178;2023-06-22T00:10:49;18.70;1.00
11559;DHT22;5835;42.930;25.178;2023-06-22T00:13:17;18.50;99.90
11559;DHT22;5835;42.930;25.178;2023-06-22T00:15:45;18.40;99.90
11559;DHT22;5835;42.930;25.178;2023-06-22T00:18:13;18.50;1.00
11559;DHT22;5835;42.930;25.178;2023-06-22T00:20:42;18.50;1.00
11559;DHT22;5835;42.930;25.178;2023-06-22T00:23:11;18.50;44.20
11559;DHT22;5835;42.930;25.178;2023-06-22T00:25:43;18.40;62.50
11559;DHT22;5835;42.930;25.178;2023-06-22T00:28:11;18.30;99.90
11559;DHT22;5835;42.930;25.178;2023-06-22T00:30:39;18.40;99.90
11559;DHT22;5835;42.930;25.178;2023-06-22T00:33:07;18.50;94.50
11559;DHT22;5835;42.930;25.178;2023-06-22T00:35:34;18.50;1.00
11559;DHT22;5835;42.930;25.178;2023-06-22T00:38:02;18.30;58.90
11559;DHT22;5835;42.930;25.178;2023-06-22T00:40:31;18.40;99.90
11559;DHT22;5835;42.930;25.178;2023-06-22T00:43:01;18.30;99.90
11559;DHT22;5835;42.930;25.178;2023-06-22T00:45:29;18.10;99.90
11559;DHT22;5835;42.930;25.178;2023-06-22T00:47:57;17.90;99.90
11559;DHT22;5835;42.930;25.178;2023-06-22T00:50:26;18.00;99.90
11559;DHT22;5835;42.930;25.178;2023-06-22T00:52:56;17.90;99.90
11559;DHT22;5835;42.930;25.178;2023-06-22T00:55:25;17.80;99.90
11559;DHT22;5835;42.930;25.178;2023-06-22T00:57:54;17.90;99.90
11559;DHT22;5835;42.930;25.178;2023-06-22T01:00:24;17.90;99.90
11559;DHT22;5835;42.930;25.178;2023-06-22T01:02:52;17.90;99.90
11559;DHT22;5835;42.930;25.178;2023-06-22T01:05:21;17.90;99.90
11559;DHT22;5835;42.930;25.178;2023-06-22T01:08:00;17.90;99.90
11559;DHT22;5835;42.930;25.178;2023-06-22T01:10:36;17.90;99.90
11559;DHT22;5835;42.930;25.178;2023-06-22T01:13:10;17.80;99.90
11559;DHT22;5835;42.930;25.178;2023-06-22T01:15:45;17.70;99.90
11559;DHT22;5835;42.930;25.178;2023-06-22T01:18:17;17.70;99.90
11559;DHT22;5835;42.930;25.178;2023-06-22T01:20:46;17.70;99.90
11559;DHT22;5835;42.930;25.178;2023-06-22T01:23:25;17.60;99.90
11559;DHT22;5835;42.930;25.178;2023-06-22T01:26:02;17.60;99.90
11559;DHT22;5835;42.930;25.178;2023-06-22T01:28:45;17.80;99.90
11559;DHT22;5835;42.930;25.178;2023-06-22T01:31:15;17.90;99.90
11559;DHT22;5835;42.930;25.178;2023-06-22T01:33:51;17.80;99.90
11559;DHT22;5835;42.930;25.178;2023-06-22T01:36:19;17.80;99.90
11559;DHT22;5835;42.930;25.178;2023-06-22T01:38:48;17.70;99.90
11559;DHT22;5835;42.930;25.178;2023-06-22T01:41:17;17.60;99.90
11559;DHT22;5835;42.930;25.178;2023-06-22T01:43:47;17.50;99.90
11559;DHT22;5835;42.930;25.178;2023-06-22T01:46:16;17.60;99.90
11559;DHT22;5835;42.930;25.178;2023-06-22T01:48:46;17.60;99.90
11559;DHT22;5835;42.930;25.178;2023-06-22T01:51:14;17.60;99.90
11559;DHT22;5835;42.930;25.178;2023-06-22T01:53:42;17.60;99.90
11559;DHT22;5835;42.930;25.178;2023-06-22T01:56:10;17.60;99.90
11559;DHT22;5835;42.930;25.178;2023-06-22T01:58:41;17.60;99.90
11559;DHT22;5835;42.930;25.178;2023-06-22T02:01:15;17.50;99.90
11559;DHT22;5835;42.930;25.178;2023-06-22T02:03:48;17.50;99.90
11559;DHT22;5835;42.930;25.178;2023-06-22T02:06:22;17.60;99.90
11559;DHT22;5835;42.930;25.178;2023-06-22T02:08:55;17.60;99.90
11559;DHT22;5835;42.930;25.178;2023-06-22T02:11:27;17.60;99.90
11559;DHT22;5835;42.930;25.178;2023-06-22T02:13:56;17.60;99.90
11559;DHT22;5835;42.930;25.178;2023-06-22T02:16:26;17.70;99.90
11559;DHT22;5835;42.930;25.178;2023-06-22T02:18:56;17.70;99.90
11559;DHT22;5835;42.930;25.178;2023-06-22T02:21:29;17.80;99.90
11559;DHT22;5835;42.930;25.178;2023-06-22T02:23:56;17.80;99.90
11559;DHT22;5835;42.930;25.178;2023-06-22T02:26:25;17.60;99.90
11559;DHT22;5835;42.930;25.178;2023-06-22T02:28:53;17.60;99.90
11559;DHT22;5835;42.930;25.178;2023-06-22T02:31:21;17.80;99.90
11559;DHT22;5835;42.930;25.178;2023-06-22T02:33:58;18.00;99.90
11559;DHT22;5835;42.930;25.178;2023-06-22T02:36:26;18.10;99.90
11559;DHT22;5835;42.930;25.178;2023-06-22T02:38:57;17.90;99.90
11559;DHT22;5835;42.930;25.178;2023-06-22T02:41:27;17.80;99.90
11559;DHT22;5835;42.930;25.178;2023-06-22T02:43:54;17.70;99.90
11559;DHT22;5835;42.930;25.178;2023-06-22T02:46:22;17.80;99.90
11559;DHT22;5835;42.930;25.178;2023-06-22T02:48:50;17.90;99.90
11559;DHT22;5835;42.930;25.178;2023-06-22T02:51:19;18.00;99.90
11559;DHT22;5835;42.930;25.178;2023-06-22T02:53:50;18.00;33.80
11559;DHT22;5835;42.930;25.178;2023-06-22T02:56:19;17.80;48.70
11559;DHT22;5835;42.930;25.178;2023-06-22T02:58:50;17.70;99.90
11559;DHT22;5835;42.930;25.178;2023-06-22T03:01:18;17.60;99.90
11559;DHT22;5835;42.930;25.178;2023-06-22T03:03:50;17.60;99.90
11559;DHT22;5835;42.930;25.178;2023-06-22T03:06:19;17.60;99.90
11559;DHT22;5835;42.930;25.178;2023-06-22T03:08:49;17.60;99.90
11559;DHT22;5835;42.930;25.178;2023-06-22T03:11:16;17.60;99.90
11559;DHT22;5835;42.930;25.178;2023-06-22T03:13:44;17.60;99.90
11559;DHT22;5835;42.930;25.178;2023-06-22T03:16:13;17.60;99.90
11559;DHT22;5835;42.930;25.178;2023-06-22T03:18:40;17.60;99.90
11559;DHT22;5835;42.930;25.178;2023-06-22T03:21:08;17.70;99.90
11559;DHT22;5835;42.930;25.178;2023-06-22T03:23:37;17.80;98.30
11559;DHT22;5835;42.930;25.178;2023-06-22T03:26:05;17.70;97.90
11559;DHT22;5835;42.930;25.178;2023-06-22T03:28:32;17.70;99.90
11559;DHT22;5835;42.930;25.178;2023-06-22T03:31:00;17.70;99.90
11559;DHT22;5835;42.930;25.178;2023-06-22T03:33:28;17.80;65.30
11559;DHT22;5835;42.930;25.178;2023-06-22T03:35:56;17.80;99.90
11559;DHT22;5835;42.930;25.178;2023-06-22T03:38:23;17.80;99.90
11559;DHT22;5835;42.930;25.178;2023-06-22T03:40:53;17.80;99.90
11559;DHT22;5835;42.930;25.178;2023-06-22T03:43:21;17.90;99.90
11559;DHT22;5835;42.930;25.178;2023-06-22T03:45:48;17.90;99.90
11559;DHT22;5835;42.930;25.178;2023-06-22T03:48:16;17.90;99.90
11559;DHT22;5835;42.930;25.178;2023-06-22T03:50:44;18.00;99.90
11559;DHT22;5835;42.930;25.178;2023-06-22T03:53:12;18.50;99.90
11559;DHT22;5835;42.930;25.178;2023-06-22T03:55:48;18.40;33.70
11559;DHT22;5835;42.930;25.178;2023-06-22T03:58:18;19.00;99.90
11559;DHT22;5835;42.930;25.178;2023-06-22T04:00:46;19.40;1.00
11559;DHT22;5835;42.930;25.178;2023-06-22T04:03:14;19.80;18.80
11559;DHT22;5835;42.930;25.178;2023-06-22T04:05:41;20.20;1.00
11559;DHT22;5835;42.930;25.178;2023-06-22T04:08:09;20.50;1.00
11559;DHT22;5835;42.930;25.178;2023-06-22T04:10:37;20.20;99.90
11559;DHT22;5835;42.930;25.178;2023-06-22T04:13:05;20.00;99.90
11559;DHT22;5835;42.930;25.178;2023-06-22T04:15:34;20.10;99.90
11559;DHT22;5835;42.930;25.178;2023-06-22T04:18:02;20.20;99.90
11559;DHT22;5835;42.930;25.178;2023-06-22T04:20:30;20.40;1.00
11559;DHT22;5835;42.930;25.178;2023-06-22T04:22:58;20.80;19.90
11559;DHT22;5835;42.930;25.178;2023-06-22T04:25:25;20.50;99.90
11559;DHT22;5835;42.930;25.178;2023-06-22T04:27:53;20.30;99.90
11559;DHT22;5835;42.930;25.178;2023-06-22T04:30:21;20.10;28.40
11559;DHT22;5835;42.930;25.178;2023-06-22T04:32:50;20.00;1.00
11559;DHT22;5835;42.930;25.178;2023-06-22T04:35:24;20.10;99.90
11559;DHT22;5835;42.930;25.178;2023-06-22T04:37:53;20.30;1.00
11559;DHT22;5835;42.930;25.178;2023-06-22T04:40:22;20.20;1.00
11559;DHT22;5835;42.930;25.178;2023-06-22T04:42:49;20.20;99.90
11559;DHT22;5835;42.930;25.178;2023-06-22T04:45:20;20.40;1.00
11559;DHT22;5835;42.930;25.178;2023-06-22T04:47:50;20.50;1.00
11559;DHT22;5835;42.930;25.178;2023-06-22T04:50:18;20.50;99.90
11559;DHT22;5835;42.930;25.178;2023-06-22T04:52:50;20.60;1.00
11559;DHT22;5835;42.930;25.178;2023-06-22T04:55:18;20.70;99.90
11559;DHT22;5835;42.930;25.178;2023-06-22T04:57:45;20.70;1.00
11559;DHT22;5835;42.930;25.178;2023-06-22T05:00:16;20.70;1.00
11559;DHT22;5835;42.930;25.178;2023-06-22T05:02:45;20.70;1.00
11559;DHT22;5835;42.930;25.178;2023-06-22T05:05:15;20.70;1.00
11559;DHT22;5835;42.930;25.178;2023-06-22T05:07:43;20.80;14.30
11559;DHT22;5835;42.930;25.178;2023-06-22T05:10:12;20.80;98.70
11559;DHT22;5835;42.930;25.178;2023-06-22T05:12:40;21.00;1.00
11559;DHT22;5835;42.930;25.178;2023-06-22T05:15:09;21.20;1.00
11559;DHT22;5835;42.930;25.178;2023-06-22T05:17:37;21.40;99.90
11559;DHT22;5835;42.930;25.178;2023-06-22T05:20:09;21.60;99.90
11559;DHT22;5835;42.930;25.178;2023-06-22T05:22:39;21.70;1.00
11559;DHT22;5835;42.930;25.178;2023-06-22T05:25:09;21.90;99.90
11559;DHT22;5835;42.930;25.178;2023-06-22T05:27:36;22.10;1.00
11559;DHT22;5835;42.930;25.178;2023-06-22T05:30:07;22.20;1.00
11559;DHT22;5835;42.930;25.178;2023-06-22T05:32:35;22.20;99.90
11559;DHT22;5835;42.930;25.178;2023-06-22T05:35:03;22.20;1.00
11559;DHT22;5835;42.930;25.178;2023-06-22T05:37:31;22.40;99.90
11559;DHT22;5835;42.930;25.178;2023-06-22T05:40:00;22.40;99.90
11559;DHT22;5835;42.930;25.178;2023-06-22T05:42:31;22.40;1.00
11559;DHT22;5835;42.930;25.178;2023-06-22T05:44:58;22.40;1.00
11559;DHT22;5835;42.930;25.178;2023-06-22T05:47:26;22.50;99.90
11559;DHT22;5835;42.930;25.178;2023-06-22T05:49:54;22.50;1.00
11559;DHT22;5835;42.930;25.178;2023-06-22T05:52:21;22.60;99.90
11559;DHT22;5835;42.930;25.178;2023-06-22T05:54:49;22.70;1.00
11559;DHT22;5835;42.930;25.178;2023-06-22T05:57:18;22.90;99.90
11559;DHT22;5835;42.930;25.178;2023-06-22T05:59:47;22.90;99.90
11559;DHT22;5835;42.930;25.178;2023-06-22T06:02:15;23.00;1.00
11559;DHT22;5835;42.930;25.178;2023-06-22T06:04:43;23.00;99.90
11559;DHT22;5835;42.930;25.178;2023-06-22T06:07:11;22.80;99.90
11559;DHT22;5835;42.930;25.178;2023-06-22T06:09:38;23.00;1.00
11559;DHT22;5835;42.930;25.178;2023-06-22T06:12:07;23.20;1.00
11559;DHT22;5835;42.930;25.178;2023-06-22T06:14:36;23.30;99.90
11559;DHT22;5835;42.930;25.178;2023-06-22T06:17:04;23.40;22.00
11559;DHT22;5835;42.930;25.178;2023-06-22T06:19:32;23.40;1.00
11559;DHT22;5835;42.930;25.178;2023-06-22T06:21:59;23.50;99.90
11559;DHT22;5835;42.930;25.178;2023-06-22T06:24:27;23.60;99.90
11559;DHT22;5835;42.930;25.178;2023-06-22T06:26:55;23.70;99.90
11559;DHT22;5835;42.930;25.178;2023-06-22T06:29:23;24.20;1.00
11559;DHT22;5835;42.930;25.178;2023-06-22T06:31:52;24.50;1.00
11559;DHT22;5835;42.930;25.178;2023-06-22T06:34:19;24.60;99.90
11559;DHT22;5835;42.930;25.178;2023-06-22T06:36:47;24.70;93.90
11559;DHT22;5835;42.930;25.178;2023-06-22T06:39:15;24.80;1.00
11559;DHT22;5835;42.930;25.178;2023-06-22T06:41:42;24.70;99.90
11559;DHT22;5835;42.930;25.178;2023-06-22T06:44:10;24.70;99.90
11559;DHT22;5835;42.930;25.178;2023-06-22T06:46:38;25.00;99.90
11559;DHT22;5835;42.930;25.178;2023-06-22T06:49:09;25.00;99.90
11559;DHT22;5835;42.930;25.178;2023-06-22T06:51:37;25.10;99.90
11559;DHT22;5835;42.930;25.178;2023-06-22T06:54:05;25.10;99.90
11559;DHT22;5835;42.930;25.178;2023-06-22T06:56:33;25.20;99.90
11559;DHT22;5835;42.930;25.178;2023-06-22T06:59:00;25.30;99.90
11559;DHT22;5835;42.930;25.178;2023-06-22T07:01:28;25.30;99.90
11559;DHT22;5835;42.930;25.178;2023-06-22T07:03:59;25.50;99.90
11559;DHT22;5835;42.930;25.178;2023-06-22T07:06:28;25.70;99.90
11559;DHT22;5835;42.930;25.178;2023-06-22T07:08:58;25.70;99.90
11559;DHT22;5835;42.930;25.178;2023-06-22T07:11:25;26.00;99.90
11559;DHT22;5835;42.930;25.178;2023-06-22T07:13:53;26.10;50.40
11559;DHT22;5835;42.930;25.178;2023-06-22T07:16:21;25.90;42.70
11559;DHT22;5835;42.930;25.178;2023-06-22T07:18:49;25.90;24.70
11559;DHT22;5835;42.930;25.178;2023-06-22T07:21:17;26.10;17.30
11559;DHT22;5835;42.930;25.178;2023-06-22T07:23:46;26.00;1.00
11559;DHT22;5835;42.930;25.178;2023-06-22T07:26:14;26.00;1.10
11559;DHT22;5835;42.930;25.178;2023-06-22T07:28:42;26.10;1.00
11559;DHT22;5835;42.930;25.178;2023-06-22T07:31:09;26.30;1.00
11559;DHT22;5835;42.930;25.178;2023-06-22T07:33:37;26.30;1.00
11559;DHT22;5835;42.930;25.178;2023-06-22T07:36:05;26.40;1.00
11559;DHT22;5835;42.930;25.178;2023-06-22T07:38:34;26.60;1.00
11559;DHT22;5835;42.930;25.178;2023-06-22T07:41:04;26.70;1.00
11559;DHT22;5835;42.930;25.178;2023-06-22T07:43:32;26.50;1.00
11559;DHT22;5835;42.930;25.178;2023-06-22T07:46:00;26.80;1.00
11559;DHT22;5835;42.930;25.178;2023-06-22T07:48:28;27.00;1.00
11559;DHT22;5835;42.930;25.178;2023-06-22T07:50:56;27.10;1.00
11559;DHT22;5835;42.930;25.178;2023-06-22T07:53:23;27.30;1.00
11559;DHT22;5835;42.930;25.178;2023-06-22T07:55:50;26.80;1.00
11559;DHT22;5835;42.930;25.178;2023-06-22T07:58:19;26.90;1.00
11559;DHT22;5835;42.930;25.178;2023-06-22T08:00:47;27.20;1.00
11559;DHT22;5835;42.930;25.178;2023-06-22T08:03:15;27.30;1.00
11559;DHT22;5835;42.930;25.178;2023-06-22T08:05:43;27.60;1.00
11559;DHT22;5835;42.930;25.178;2023-06-22T08:08:11;27.40;1.00
11559;DHT22;5835;42.930;25.178;2023-06-22T08:10:40;26.90;1.00
11559;DHT22;5835;42.930;25.178;2023-06-22T08:13:08;27.40;1.00
11559;DHT22;5835;42.930;25.178;2023-06-22T08:15:37;27.50;1.00
11559;DHT22;5835;42.930;25.178;2023-06-22T08:18:04;27.50;1.00
11559;DHT22;5835;42.930;25.178;2023-06-22T08:20:32;27.50;1.00
11559;DHT22;5835;42.930;25.178;2023-06-22T08:23:00;27.50;1.00
11559;DHT22;5835;42.930;25.178;2023-06-22T08:25:32;27.50;1.00
11559;DHT22;5835;42.930;25.178;2023-06-22T08:28:00;28.00;1.00
11559;DHT22;5835;42.930;25.178;2023-06-22T08:30:28;28.10;1.00
11559;DHT22;5835;42.930;25.178;2023-06-22T08:32:57;28.10;1.00
11559;DHT22;5835;42.930;25.178;2023-06-22T08:35:25;28.30;1.00
11559;DHT22;5835;42.930;25.178;2023-06-22T08:37:53;28.40;1.00
11559;DHT22;5835;42.930;25.178;2023-06-22T08:40:21;28.30;1.00
11559;DHT22;5835;42.930;25.178;2023-06-22T08:42:50;28.10;1.00
11559;DHT22;5835;42.930;25.178;2023-06-22T08:45:17;28.40;1.00
11559;DHT22;5835;42.930;25.178;2023-06-22T08:47:45;28.70;1.00
11559;DHT22;5835;42.930;25.178;2023-06-22T08:50:14;28.70;1.00
11559;DHT22;5835;42.930;25.178;2023-06-22T08:52:43;28.90;1.00
11559;DHT22;5835;42.930;25.178;2023-06-22T08:55:11;28.50;1.00
11559;DHT22;5835;42.930;25.178;2023-06-22T08:57:40;28.70;1.00
11559;DHT22;5835;42.930;25.178;2023-06-22T09:00:09;29.20;1.00
11559;DHT22;5835;42.930;25.178;2023-06-22T09:02:43;29.20;1.00
11559;DHT22;5835;42.930;25.178;2023-06-22T09:05:11;29.00;1.00
11559;DHT22;5835;42.930;25.178;2023-06-22T09:07:40;29.20;1.00
11559;DHT22;5835;42.930;25.178;2023-06-22T09:10:09;29.20;1.00
11559;DHT22;5835;42.930;25.178;2023-06-22T09:12:38;29.50;1.00
11559;DHT22;5835;42.930;25.178;2023-06-22T09:15:07;29.60;1.00
11559;DHT22;5835;42.930;25.178;2023-06-22T09:17:36;29.70;1.00
11559;DHT22;5835;42.930;25.178;2023-06-22T09:20:04;29.90;1.00
11559;DHT22;5835;42.930;25.178;2023-06-22T09:22:33;29.70;1.00
11559;DHT22;5835;42.930;25.178;2023-06-22T09:25:03;29.30;1.00
11559;DHT22;5835;42.930;25.178;2023-06-22T09:27:31;29.70;1.00
11559;DHT22;5835;42.930;25.178;2023-06-22T09:29:59;30.40;1.00
11559;DHT22;5835;42.930;25.178;2023-06-22T09:32:27;31.00;1.00
11559;DHT22;5835;42.930;25.178;2023-06-22T09:34:54;30.70;1.00
11559;DHT22;5835;42.930;25.178;2023-06-22T09:37:22;29.90;1.00
11559;DHT22;5835;42.930;25.178;2023-06-22T09:39:50;30.10;1.00
11559;DHT22;5835;42.930;25.178;2023-06-22T09:42:19;30.50;1.00
11559;DHT22;5835;42.930;25.178;2023-06-22T09:44:46;30.70;1.00
11559;DHT22;5835;42.930;25.178;2023-06-22T09:47:14;30.50;1.00
11559;DHT22;5835;42.930;25.178;2023-06-22T09:49:42;30.50;1.00
11559;DHT22;5835;42.930;25.178;2023-06-22T09:52:10;30.90;1.00
11559;DHT22;5835;42.930;25.178;2023-06-22T09:54:38;30.50;1.00
11559;DHT22;5835;42.930;25.178;2023-06-22T09:57:06;30.30;1.00
11559;DHT22;5835;42.930;25.178;2023-06-22T09:59:36;30.10;1.00
11559;DHT22;5835;42.930;25.178;2023-06-22T10:02:04;30.50;1.00
11559;DHT22;5835;42.930;25.178;2023-06-22T10:04:31;31.30;1.00
11559;DHT22;5835;42.930;25.178;2023-06-22T10:06:59;31.50;1.00
11559;DHT22;5835;42.930;25.178;2023-06-22T10:09:27;31.60;1.00
11559;DHT22;5835;42.930;25.178;2023-06-22T10:11:55;31.50;1.00
11559;DHT22;5835;42.930;25.178;2023-06-22T10:14:23;31.50;1.00
11559;DHT22;5835;42.930;25.178;2023-06-22T10:16:54;31.70;1.00
11559;DHT22;5835;42.930;25.178;2023-06-22T10:19:22;31.60;1.00
11559;DHT22;5835;42.930;25.178;2023-06-22T10:21:50;31.00;1.00
11559;DHT22;5835;42.930;25.178;2023-06-22T10:24:18;30.20;1.00
11559;DHT22;5835;42.930;25.178;2023-06-22T10:26:45;31.10;1.00
11559;DHT22;5835;42.930;25.178;2023-06-22T10:29:13;30.90;1.00
11559;DHT22;5835;42.930;25.178;2023-06-22T10:31:41;31.30;1.00
11559;DHT22;5835;42.930;25.178;2023-06-22T10:34:10;32.40;1.00
11559;DHT22;5835;42.930;25.178;2023-06-22T10:36:40;32.70;1.00
11559;DHT22;5835;42.930;25.178;2023-06-22T10:39:08;33.00;1.00
11559;DHT22;5835;42.930;25.178;2023-06-22T10:41:35;32.60;1.00
11559;DHT22;5835;42.930;25.178;2023-06-22T10:44:03;31.90;1.00
11559;DHT22;5835;42.930;25.178;2023-06-22T10:46:31;32.10;1.00
11559;DHT22;5835;42.930;25.178;2023-06-22T10:48:59;32.10;1.00
11559;DHT22;5835;42.930;25.178;2023-06-22T10:51:29;33.10;1.00
11559;DHT22;5835;42.930;25.178;2023-06-22T10:53:57;33.10;1.00
11559;DHT22;5835;42.930;25.178;2023-06-22T10:56:25;31.90;1.00
11559;DHT22;5835;42.930;25.178;2023-06-22T10:58:53;30.50;1.00
11559;DHT22;5835;42.930;25.178;2023-06-22T11:01:21;31.90;1.00
11559;DHT22;5835;42.930;25.178;2023-06-22T11:03:48;32.50;1.00
11559;DHT22;5835;42.930;25.178;2023-06-22T11:06:16;31.40;1.00
11559;DHT22;5835;42.930;25.178;2023-06-22T11:08:46;31.70;1.00
11559;DHT22;5835;42.930;25.178;2023-06-22T11:11:14;31.60;1.00
11559;DHT22;5835;42.930;25.178;2023-06-22T11:13:43;30.80;1.00
11559;DHT22;5835;42.930;25.178;2023-06-22T11:16:11;31.10;1.00
11559;DHT22;5835;42.930;25.178;2023-06-22T11:18:39;31.80;1.00
11559;DHT22;5835;42.930;25.178;2023-06-22T11:21:06;32.10;1.00
11559;DHT22;5835;42.930;25.178;2023-06-22T11:23:34;32.10;1.00
11559;DHT22;5835;42.930;25.178;2023-06-22T11:26:03;32.80;1.00
11559;DHT22;5835;42.930;25.178;2023-06-22T11:28:31;32.60;1.00
11559;DHT22;5835;42.930;25.178;2023-06-22T11:30:59;32.60;1.00
11559;DHT22;5835;42.930;25.178;2023-06-22T11:33:26;32.80;1.00
11559;DHT22;5835;42.930;25.178;2023-06-22T11:35:54;33.10;1.00
11559;DHT22;5835;42.930;25.178;2023-06-22T11:38:22;33.10;1.00
11559;DHT22;5835;42.930;25.178;2023-06-22T11:40:50;33.20;1.00
11559;DHT22;5835;42.930;25.178;2023-06-22T11:43:19;33.60;1.00
11559;DHT22;5835;42.930;25.178;2023-06-22T11:45:47;33.50;1.00
11559;DHT22;5835;42.930;25.178;2023-06-22T11:48:15;32.90;1.00
11559;DHT22;5835;42.930;25.178;2023-06-22T11:50:42;33.00;1.00
11559;DHT22;5835;42.930;25.178;2023-06-22T11:53:10;33.60;1.00
11559;DHT22;5835;42.930;25.178;2023-06-22T11:55:38;33.50;1.00
11559;DHT22;5835;42.930;25.178;2023-06-22T11:58:06;33.70;1.00
11559;DHT22;5835;42.930;25.178;2023-06-22T12:00:35;34.40;1.00
11559;DHT22;5835;42.930;25.178;2023-06-22T12:03:03;34.40;1.00
11559;DHT22;5835;42.930;25.178;2023-06-22T12:05:31;32.20;1.00
11559;DHT22;5835;42.930;25.178;2023-06-22T12:07:59;32.70;1.00
11559;DHT22;5835;42.930;25.178;2023-06-22T12:10:27;32.40;1.00
11559;DHT22;5835;42.930;25.178;2023-06-22T12:12:55;33.00;1.00
11559;DHT22;5835;42.930;25.178;2023-06-22T12:15:24;32.90;1.00
11559;DHT22;5835;42.930;25.178;2023-06-22T12:17:53;33.30;1.00
11559;DHT22;5835;42.930;25.178;2023-06-22T12:20:21;32.70;1.00
11559;DHT22;5835;42.930;25.178;2023-06-22T12:22:49;32.50;1.00
11559;DHT22;5835;42.930;25.178;2023-06-22T12:25:17;32.40;1.00
11559;DHT22;5835;42.930;25.178;2023-06-22T12:27:45;32.50;1.00
11559;DHT22;5835;42.930;25.178;2023-06-22T12:30:12;32.90;1.00
11559;DHT22;5835;42.930;25.178;2023-06-22T12:32:40;32.80;1.00
11559;DHT22;5835;42.930;25.178;2023-06-22T12:35:09;32.50;1.00
11559;DHT22;5835;42.930;25.178;2023-06-22T12:37:40;32.40;1.00
11559;DHT22;5835;42.930;25.178;2023-06-22T12:40:09;33.10;1.00
11559;DHT22;5835;42.930;25.178;2023-06-22T12:42:37;33.00;1.00
11559;DHT22;5835;42.930;25.178;2023-06-22T12:45:05;33.30;1.00
11559;DHT22;5835;42.930;25.178;2023-06-22T12:47:33;32.80;1.00
11559;DHT22;5835;42.930;25.178;2023-06-22T12:50:01;32.40;1.00
11559;DHT22;5835;42.930;25.178;2023-06-22T12:52:31;31.80;1.00
11559;DHT22;5835;42.930;25.178;2023-06-22T12:54:59;32.20;1.00
11559;DHT22;5835;42.930;25.178;2023-06-22T12:57:27;32.20;1.00
11559;DHT22;5835;42.930;25.178;2023-06-22T12:59:55;32.20;1.00
11559;DHT22;5835;42.930;25.178;2023-06-22T13:02:24;32.80;1.00
11559;DHT22;5835;42.930;25.178;2023-06-22T13:04:53;33.80;1.00
11559;DHT22;5835;42.930;25.178;2023-06-22T13:07:20;33.30;1.00
11559;DHT22;5835;42.930;25.178;2023-06-22T13:09:50;32.90;1.00
11559;DHT22;5835;42.930;25.178;2023-06-22T13:12:19;33.20;1.00
11559;DHT22;5835;42.930;25.178;2023-06-22T13:14:47;32.70;1.00
11559;DHT22;5835;42.930;25.178;2023-06-22T13:17:15;32.90;1.00
11559;DHT22;5835;42.930;25.178;2023-06-22T13:19:43;32.70;1.00
11559;DHT22;5835;42.930;25.178;2023-06-22T13:22:26;32.30;1.00
11559;DHT22;5835;42.930;25.178;2023-06-22T13:24:57;32.70;1.00
11559;DHT22;5835;42.930;25.178;2023-06-22T13:27:25;32.90;1.00
11559;DHT22;5835;42.930;25.178;2023-06-22T13:29:53;33.20;1.00
11559;DHT22;5835;42.930;25.178;2023-06-22T13:32:20;33.50;1.00
11559;DHT22;5835;42.930;25.178;2023-06-22T13:34:48;34.10;1.00
11559;DHT22;5835;42.930;25.178;2023-06-22T13:37:16;34.20;1.00
11559;DHT22;5835;42.930;25.178;2023-06-22T13:39:44;34.00;1.00
11559;DHT22;5835;42.930;25.178;2023-06-22T13:42:13;34.90;1.00
11559;DHT22;5835;42.930;25.178;2023-06-22T13:44:41;34.70;1.00
11559;DHT22;5835;42.930;25.178;2023-06-22T13:47:09;35.30;1.00
11559;DHT22;5835;42.930;25.178;2023-06-22T13:49:37;35.20;1.00
11559;DHT22;5835;42.930;25.178;2023-06-22T13:52:05;34.50;1.00
11559;DHT22;5835;42.930;25.178;2023-06-22T13:54:36;34.30;1.00
11559;DHT22;5835;42.930;25.178;2023-06-22T13:57:04;34.00;1.00
11559;DHT22;5835;42.930;25.178;2023-06-22T13:59:33;34.00;1.00
11559;DHT22;5835;42.930;25.178;2023-06-22T14:02:01;33.80;1.00
11559;DHT22;5835;42.930;25.178;2023-06-22T14:04:29;33.80;1.00
11559;DHT22;5835;42.930;25.178;2023-06-22T14:06:57;34.10;1.00
11559;DHT22;5835;42.930;25.178;2023-06-22T14:09:24;34.80;1.00
11559;DHT22;5835;42.930;25.178;2023-06-22T14:11:54;34.50;1.00
11559;DHT22;5835;42.930;25.178;2023-06-22T14:14:22;34.30;1.00
11559;DHT22;5835;42.930;25.178;2023-06-22T14:16:51;33.90;1.00
11559;DHT22;5835;42.930;25.178;2023-06-22T14:19:19;33.20;1.00
11559;DHT22;5835;42.930;25.178;2023-06-22T14:21:47;33.30;1.00
11559;DHT22;5835;42.930;25.178;2023-06-22T14:24:14;33.70;1.00
11559;DHT22;5835;42.930;25.178;2023-06-22T14:26:42;34.00;1.00
11559;DHT22;5835;42.930;25.178;2023-06-22T14:29:10;33.90;1.00
11559;DHT22;5835;42.930;25.178;2023-06-22T14:31:37;34.00;1.00
11559;DHT22;5835;42.930;25.178;2023-06-22T14:34:07;33.60;1.00
11559;DHT22;5835;42.930;25.178;2023-06-22T14:36:34;33.80;1.00
11559;DHT22;5835;42.930;25.178;2023-06-22T14:39:02;33.50;1.00
11559;DHT22;5835;42.930;25.178;2023-06-22T14:41:30;32.60;1.00
11559;DHT22;5835;42.930;25.178;2023-06-22T14:43:58;32.80;1.00
11559;DHT22;5835;42.930;25.178;2023-06-22T14:46:26;32.50;1.00
11559;DHT22;5835;42.930;25.178;2023-06-22T14:48:54;32.00;1.00
11559;DHT22;5835;42.930;25.178;2023-06-22T14:51:24;31.90;1.00
11559;DHT22;5835;42.930;25.178;2023-06-22T14:53:51;31.50;1.00
11559;DHT22;5835;42.930;25.178;2023-06-22T14:56:19;31.30;1.00
11559;DHT22;5835;42.930;25.178;2023-06-22T14:58:46;31.20;1.00
11559;DHT22;5835;42.930;25.178;2023-06-22T15:01:16;31.00;1.00
11559;DHT22;5835;42.930;25.178;2023-06-22T15:03:43;31.10;1.00
11559;DHT22;5835;42.930;25.178;2023-06-22T15:06:12;30.50;1.00
11559;DHT22;5835;42.930;25.178;2023-06-22T15:08:41;27.80;1.00
11559;DHT22;5835;42.930;25.178;2023-06-22T15:11:10;26.80;1.00
11559;DHT22;5835;42.930;25.178;2023-06-22T15:13:40;26.20;1.00
11559;DHT22;5835;42.930;25.178;2023-06-22T15:16:08;25.20;1.00
11559;DHT22;5835;42.930;25.178;2023-06-22T15:18:36;24.70;1.00
11559;DHT22;5835;42.930;25.178;2023-06-22T15:21:07;24.60;1.00
11559;DHT22;5835;42.930;25.178;2023-06-22T15:23:34;24.10;1.00
11559;DHT22;5835;42.930;25.178;2023-06-22T15:26:04;24.10;1.00
11559;DHT22;5835;42.930;25.178;2023-06-22T15:28:32;24.00;8.70
11559;DHT22;5835;42.930;25.178;2023-06-22T15:31:01;24.10;44.50
11559;DHT22;5835;42.930;25.178;2023-06-22T15:33:28;24.40;1.00
11559;DHT22;5835;42.930;25.178;2023-06-22T15:35:58;24.50;1.00
11559;DHT22;5835;42.930;25.178;2023-06-22T15:38:29;24.50;1.00
11559;DHT22;5835;42.930;25.178;2023-06-22T15:40:58;24.60;1.00
11559;DHT22;5835;42.930;25.178;2023-06-22T15:43:27;24.90;1.00
11559;DHT22;5835;42.930;25.178;2023-06-22T15:45:55;25.20;1.00
11559;DHT22;5835;42.930;25.178;2023-06-22T15:48:23;25.30;1.00